createdAt,value
2018-04-17T00:01:34.916Z,16.40
2018-04-17T00:04:05.449Z,16.30
2018-04-17T00:06:33.688Z,16.20
2018-04-17T00:09:01.952Z,16.30
2018-04-17T00:11:30.195Z,16.40
2018-04-17T00:13:58.427Z,16.30
2018-04-17T00:16:26.699Z,16.20
2018-04-17T00:18:55.705Z,16.10
2018-04-17T00:21:24.089Z,16.10
2018-04-17T00:23:52.483Z,15.90
2018-04-17T00:26:20.723Z,15.80
2018-04-17T00:28:48.968Z,15.80
2018-04-17T00:31:17.231Z,15.60
2018-04-17T00:33:45.467Z,15.60
2018-04-17T00:36:13.703Z,15.50
2018-04-17T00:38:42.436Z,15.50
2018-04-17T00:41:10.679Z,15.40
2018-04-17T00:43:39.791Z,15.30
2018-04-17T00:46:09.036Z,15.30
2018-04-17T00:48:37.282Z,15.30
2018-04-17T00:51:05.579Z,15.30
2018-04-17T00:53:45.714Z,15.20
2018-04-17T00:56:13.972Z,15.20
2018-04-17T00:58:42.970Z,15.20
2018-04-17T01:01:12.244Z,15.10
2018-04-17T01:03:40.479Z,15.10
2018-04-17T01:06:08.719Z,15.00
2018-04-17T01:08:38.062Z,15.00
2018-04-17T01:11:06.361Z,14.90
2018-04-17T01:13:34.602Z,15.00
2018-04-17T01:16:02.859Z,15.00
2018-04-17T01:18:31.863Z,15.10
2018-04-17T01:21:00.099Z,15.00
2018-04-17T01:23:28.562Z,15.00
2018-04-17T01:25:56.795Z,14.90
2018-04-17T01:28:25.031Z,14.90
2018-04-17T01:30:53.295Z,14.80
2018-04-17T01:33:21.531Z,14.80
2018-04-17T01:35:49.766Z,14.80
2018-04-17T01:38:18.035Z,15.00
2018-04-17T01:40:46.791Z,15.00
2018-04-17T01:43:15.287Z,14.90
2018-04-17T01:45:43.603Z,14.80
2018-04-17T01:48:11.843Z,14.70
2018-04-17T01:50:40.078Z,14.70
2018-04-17T01:53:08.342Z,14.50
2018-04-17T01:55:36.575Z,14.50
2018-04-17T01:58:04.819Z,14.50
2018-04-17T02:00:33.082Z,14.40
2018-04-17T02:03:02.083Z,14.30
2018-04-17T02:05:30.320Z,14.30
2018-04-17T02:07:58.847Z,14.20
2018-04-17T02:10:27.089Z,14.20
2018-04-17T02:12:55.325Z,14.20
2018-04-17T02:15:23.583Z,14.30
2018-04-17T02:17:51.974Z,14.20
2018-04-17T02:20:20.211Z,14.20
2018-04-17T02:22:48.516Z,14.20
2018-04-17T02:25:16.843Z,14.20
2018-04-17T02:27:45.852Z,14.10
2018-04-17T02:30:14.955Z,13.90
2018-04-17T02:32:43.255Z,13.90
2018-04-17T02:35:11.879Z,13.90
2018-04-17T02:37:40.143Z,13.80
2018-04-17T02:40:08.380Z,13.80
2018-04-17T02:42:36.728Z,13.80
2018-04-17T02:45:05.758Z,13.50
2018-04-17T02:47:34.148Z,13.40
2018-04-17T02:50:03.105Z,13.40
2018-04-17T02:52:32.461Z,13.50
2018-04-17T02:55:00.701Z,13.40
2018-04-17T02:57:28.947Z,13.50
2018-04-17T02:59:57.271Z,13.40
2018-04-17T03:02:25.580Z,13.40
2018-04-17T03:04:53.823Z,13.30
2018-04-17T03:07:22.091Z,13.20
2018-04-17T03:09:50.332Z,13.20
2018-04-17T03:12:18.858Z,13.20
2018-04-17T03:14:47.183Z,13.20
2018-04-17T03:17:15.438Z,13.40
2018-04-17T03:19:43.674Z,13.40
2018-04-17T03:22:11.933Z,13.40
2018-04-17T03:24:40.177Z,13.30
2018-04-17T03:27:08.419Z,13.20
2018-04-17T03:29:36.679Z,13.20
2018-04-17T03:32:04.923Z,13.10
2018-04-17T03:34:33.927Z,13.00
2018-04-17T03:37:03.268Z,12.90
2018-04-17T03:39:31.503Z,12.90
2018-04-17T03:41:59.739Z,13.00
2018-04-17T03:44:28.377Z,13.00
2018-04-17T03:46:57.378Z,13.00
2018-04-17T03:49:25.615Z,12.90
2018-04-17T03:51:53.883Z,12.90
2018-04-17T03:54:22.196Z,12.80
2018-04-17T03:56:50.411Z,12.70
2018-04-17T03:59:19.814Z,12.70
2018-04-17T04:01:48.050Z,12.70
2018-04-17T04:04:16.296Z,12.80
2018-04-17T04:06:44.556Z,12.90
2018-04-17T04:09:12.796Z,12.90
2018-04-17T04:11:41.195Z,12.90
2018-04-17T04:14:09.542Z,12.80
2018-04-17T04:16:50.195Z,12.60
2018-04-17T04:19:31.215Z,12.70
2018-04-17T04:22:11.307Z,12.60
2018-04-17T04:24:51.295Z,12.60
2018-04-17T04:27:19.614Z,12.60
2018-04-17T04:29:47.855Z,12.60
2018-04-17T04:32:16.123Z,12.60
2018-04-17T04:34:44.549Z,12.60
2018-04-17T04:37:12.855Z,12.60
2018-04-17T04:39:41.294Z,12.50
2018-04-17T04:42:09.885Z,12.40
2018-04-17T04:44:38.613Z,12.40
2018-04-17T04:47:07.640Z,12.40
2018-04-17T04:49:35.884Z,12.30
2018-04-17T04:52:04.129Z,12.30
2018-04-17T04:54:32.380Z,12.30
2018-04-17T04:57:00.616Z,12.30
2018-04-17T04:59:28.851Z,12.30
2018-04-17T05:01:57.299Z,12.30
2018-04-17T05:04:25.553Z,12.30
2018-04-17T05:06:53.841Z,12.30
2018-04-17T05:09:22.132Z,12.30
2018-04-17T05:11:50.483Z,12.30
2018-04-17T05:14:19.508Z,12.30
2018-04-17T05:16:47.784Z,12.30
2018-04-17T05:19:16.019Z,12.40
2018-04-17T05:21:44.258Z,12.40
2018-04-17T05:24:13.054Z,12.40
2018-04-17T05:26:41.372Z,12.40
2018-04-17T05:29:11.637Z,12.50
2018-04-17T05:31:40.016Z,12.50
2018-04-17T05:34:08.259Z,12.50
2018-04-17T05:36:36.508Z,12.60
2018-04-17T05:39:05.542Z,12.80
2018-04-17T05:41:33.779Z,12.80
2018-04-17T05:44:02.036Z,12.80
2018-04-17T05:46:30.593Z,12.90
2018-04-17T05:48:58.839Z,13.00
2018-04-17T05:51:27.481Z,13.00
2018-04-17T05:53:55.749Z,13.00
2018-04-17T05:56:23.983Z,13.00
2018-04-17T05:58:52.252Z,13.00
2018-04-17T06:01:21.271Z,13.00
2018-04-17T06:03:49.563Z,13.10
2018-04-17T06:06:17.795Z,13.10
2018-04-17T06:08:46.445Z,13.10
2018-04-17T06:11:14.676Z,13.20
2018-04-17T06:13:42.973Z,13.20
2018-04-17T06:16:11.203Z,13.30
2018-04-17T06:18:40.199Z,13.40
2018-04-17T06:21:08.471Z,13.40
2018-04-17T06:23:37.502Z,13.40
2018-04-17T06:26:05.768Z,13.40
2018-04-17T06:28:34.095Z,13.40
2018-04-17T06:31:02.412Z,13.40
2018-04-17T06:33:30.669Z,13.50
2018-04-17T06:35:58.945Z,13.50
2018-04-17T06:38:27.215Z,13.50
2018-04-17T06:40:55.542Z,13.50
2018-04-17T06:43:23.786Z,13.60
2018-04-17T06:45:52.310Z,13.70
2018-04-17T06:48:20.949Z,13.70
2018-04-17T06:50:49.175Z,13.70
2018-04-17T06:53:17.755Z,13.80
2018-04-17T06:55:45.998Z,13.80
2018-04-17T06:58:14.333Z,13.80
2018-04-17T07:00:42.587Z,13.90
2018-04-17T07:03:10.831Z,14.00
2018-04-17T07:05:39.169Z,14.10
2018-04-17T07:08:07.415Z,14.20
2018-04-17T07:10:35.666Z,14.20
2018-04-17T07:13:03.915Z,14.20
2018-04-17T07:15:33.482Z,14.40
2018-04-17T07:18:01.816Z,14.30
2018-04-17T07:20:30.827Z,14.40
2018-04-17T07:22:59.100Z,14.40
2018-04-17T07:25:27.352Z,14.60
2018-04-17T07:27:55.600Z,14.60
2018-04-17T07:30:23.867Z,14.60
2018-04-17T07:32:52.124Z,14.60
2018-04-17T07:35:20.397Z,14.70
2018-04-17T07:37:48.883Z,14.80
2018-04-17T07:40:17.123Z,14.90
2018-04-17T07:42:45.367Z,15.00
2018-04-17T07:45:13.648Z,15.00
2018-04-17T07:48:04.514Z,15.20
2018-04-17T07:50:33.214Z,15.30
2018-04-17T07:53:01.452Z,15.30
2018-04-17T07:55:29.975Z,15.40
2018-04-17T07:57:58.355Z,15.40
2018-04-17T08:00:26.652Z,15.50
2018-04-17T08:02:54.899Z,15.60
2018-04-17T08:05:23.170Z,15.60
2018-04-17T08:07:51.418Z,15.80
2018-04-17T08:10:19.662Z,15.80
2018-04-17T08:12:48.718Z,15.70
2018-04-17T08:15:17.003Z,15.80
2018-04-17T08:17:45.260Z,15.90
2018-04-17T08:20:13.768Z,15.90
2018-04-17T08:22:42.018Z,16.00
2018-04-17T08:25:10.271Z,16.00
2018-04-17T08:27:39.306Z,16.20
2018-04-17T08:30:07.588Z,16.20
2018-04-17T08:32:35.843Z,16.30
2018-04-17T08:35:04.103Z,16.30
2018-04-17T08:37:32.382Z,16.40
2018-04-17T08:40:01.394Z,16.50
2018-04-17T08:42:30.531Z,16.50
2018-04-17T08:44:58.778Z,16.60
2018-04-17T08:47:27.023Z,16.70
2018-04-17T08:49:55.296Z,16.80
2018-04-17T08:52:23.884Z,16.80
2018-04-17T08:54:52.937Z,17.00
2018-04-17T08:57:21.195Z,16.90
2018-04-17T08:59:49.446Z,17.00
2018-04-17T09:02:17.753Z,17.10
2018-04-17T09:04:46.135Z,17.20
2018-04-17T09:07:14.731Z,17.20
2018-04-17T09:09:42.985Z,17.20
2018-04-17T09:12:11.246Z,17.30
2018-04-17T09:14:39.498Z,17.40
2018-04-17T09:17:07.783Z,17.50
2018-04-17T09:19:36.178Z,17.60
2018-04-17T09:22:04.403Z,17.70
2018-04-17T09:24:32.855Z,17.80
2018-04-17T09:27:01.445Z,17.90
2018-04-17T09:29:29.847Z,17.90
2018-04-17T09:31:58.099Z,18.00
2018-04-17T09:34:26.371Z,18.10
2018-04-17T09:36:54.748Z,18.10
2018-04-17T09:39:22.991Z,18.20
2018-04-17T09:41:51.271Z,18.20
2018-04-17T09:44:19.523Z,18.30
2018-04-17T09:46:47.773Z,18.40
2018-04-17T09:49:16.103Z,18.50
2018-04-17T09:51:44.359Z,18.50
2018-04-17T09:54:14.927Z,18.50
2018-04-17T09:56:43.287Z,18.50
2018-04-17T09:59:12.295Z,18.70
2018-04-17T10:01:40.555Z,18.60
2018-04-17T10:04:08.825Z,18.80
2018-04-17T10:06:37.072Z,18.90
2018-04-17T10:09:06.188Z,19.10
2018-04-17T10:11:34.783Z,19.10
2018-04-17T10:14:03.800Z,19.20
2018-04-17T10:16:32.051Z,19.20
2018-04-17T10:19:00.336Z,19.30
2018-04-17T10:21:28.579Z,19.40
2018-04-17T10:23:56.825Z,19.40
2018-04-17T10:26:25.113Z,19.50
2018-04-17T10:28:53.443Z,19.50
2018-04-17T10:31:22.451Z,19.80
2018-04-17T10:33:51.163Z,19.80
2018-04-17T10:36:19.403Z,20.10
2018-04-17T10:38:48.860Z,20.30
2018-04-17T10:41:17.112Z,20.70
2018-04-17T10:43:45.364Z,21.10
2018-04-17T10:46:14.037Z,21.50
2018-04-17T10:48:42.376Z,22.40
2018-04-17T10:51:10.599Z,23.50
2018-04-17T10:53:38.834Z,24.50
2018-04-17T10:56:09.408Z,25.20
2018-04-17T10:58:38.935Z,25.90
2018-04-17T11:01:07.919Z,26.10
2018-04-17T11:03:37.260Z,26.00
2018-04-17T11:06:05.534Z,27.00
2018-04-17T11:08:35.350Z,28.00
2018-04-17T11:11:03.912Z,28.70
2018-04-17T11:13:32.220Z,29.10
2018-04-17T11:16:00.442Z,29.20
2018-04-17T11:18:28.764Z,29.30
2018-04-17T11:20:59.207Z,29.20
2018-04-17T11:23:27.443Z,28.60
2018-04-17T11:25:55.852Z,28.30
2018-04-17T11:28:24.765Z,28.10
2018-04-17T11:30:53.331Z,28.50
2018-04-17T11:36:27.674Z,29.60
2018-04-17T11:38:55.947Z,30.30
2018-04-17T11:41:24.174Z,30.80
2018-04-17T11:43:52.443Z,31.00
2018-04-17T11:46:20.678Z,31.10
2018-04-17T11:48:48.928Z,31.30
2018-04-17T11:51:17.196Z,31.00
2018-04-17T11:53:45.439Z,30.30
2018-04-17T11:56:14.667Z,28.10
2018-04-17T11:58:43.356Z,28.00
2018-04-17T12:01:11.696Z,27.10
2018-04-17T12:03:41.023Z,26.00
2018-04-17T12:06:09.298Z,26.00
2018-04-17T12:08:37.548Z,25.70
2018-04-17T12:11:05.788Z,25.50
2018-04-17T12:13:34.064Z,25.40
2018-04-17T12:16:02.375Z,25.30
2018-04-17T12:18:30.619Z,26.00
2018-04-17T12:20:59.091Z,28.00
2018-04-17T12:23:27.342Z,29.90
2018-04-17T12:25:55.609Z,31.60
2018-04-17T12:28:23.861Z,32.80
2018-04-17T12:30:52.863Z,34.30
2018-04-17T12:33:21.878Z,34.60
2018-04-17T12:35:50.130Z,34.50
2018-04-17T12:38:18.368Z,34.90
2018-04-17T12:40:46.607Z,34.90
2018-04-17T12:43:15.103Z,34.60
2018-04-17T12:45:43.351Z,33.60
2018-04-17T12:48:11.587Z,32.40
2018-04-17T12:50:39.852Z,32.10
2018-04-17T12:53:08.105Z,33.00
2018-04-17T12:55:36.331Z,34.10
2018-04-17T12:58:05.023Z,34.40
2018-04-17T13:00:34.026Z,34.90
2018-04-17T13:03:03.039Z,34.60
2018-04-17T13:05:31.431Z,34.60
2018-04-17T13:07:59.678Z,34.00
2018-04-17T13:10:27.944Z,34.10
2018-04-17T13:12:56.967Z,33.90
2018-04-17T13:15:25.203Z,33.90
2018-04-17T13:17:53.441Z,33.20
2018-04-17T13:20:21.706Z,33.60
2018-04-17T13:22:49.947Z,34.60
2018-04-17T13:25:18.184Z,34.90
2018-04-17T13:27:46.804Z,35.00
2018-04-17T13:30:15.035Z,35.00
2018-04-17T13:32:43.275Z,35.20
2018-04-17T13:35:12.308Z,35.70
2018-04-17T13:37:40.552Z,35.60
2018-04-17T13:40:08.788Z,36.30
2018-04-17T13:42:37.052Z,36.70
2018-04-17T13:45:05.288Z,37.40
2018-04-17T13:47:33.531Z,37.80
2018-04-17T13:50:02.646Z,39.00
2018-04-17T13:52:31.639Z,39.20
2018-04-17T13:54:59.881Z,39.10
2018-04-17T13:57:28.139Z,38.80
2018-04-17T13:59:56.958Z,38.30
2018-04-17T14:02:27.206Z,38.50
2018-04-17T14:04:55.413Z,38.50
2018-04-17T14:07:23.635Z,38.70
2018-04-17T14:09:52.665Z,39.20
2018-04-17T14:12:21.738Z,39.50
2018-04-17T14:14:49.979Z,39.50
2018-04-17T14:17:18.281Z,39.90
2018-04-17T14:19:46.484Z,39.80
2018-04-17T14:22:14.728Z,40.10
2018-04-17T14:24:42.963Z,40.40
2018-04-17T14:27:11.234Z,40.30
2018-04-17T14:29:39.471Z,40.10
2018-04-17T14:32:07.750Z,40.40
2018-04-17T14:34:37.093Z,39.90
2018-04-17T14:37:05.332Z,39.90
2018-04-17T14:39:33.574Z,39.30
2018-04-17T14:42:01.856Z,38.90
2018-04-17T14:44:30.223Z,39.30
2018-04-17T14:46:58.472Z,40.00
2018-04-17T14:49:26.728Z,40.40
2018-04-17T14:51:55.128Z,40.40
2018-04-17T14:54:23.396Z,40.00
2018-04-17T14:56:52.011Z,39.80
2018-04-17T14:59:20.284Z,39.90
2018-04-17T15:01:48.905Z,40.30
2018-04-17T15:04:17.981Z,40.90
2018-04-17T15:06:46.218Z,40.90
2018-04-17T15:09:14.458Z,41.30
2018-04-17T15:11:43.499Z,41.40
2018-04-17T15:14:11.727Z,41.30
2018-04-17T15:16:40.739Z,41.70
2018-04-17T15:19:09.259Z,41.70
2018-04-17T15:21:37.515Z,41.40
2018-04-17T15:24:05.759Z,41.20
2018-04-17T15:26:34.019Z,41.30
2018-04-17T15:29:02.408Z,41.60
2018-04-17T15:31:31.415Z,42.00
2018-04-17T15:33:59.680Z,41.90
2018-04-17T15:36:29.868Z,42.00
2018-04-17T15:38:59.371Z,42.00
2018-04-17T15:41:28.873Z,41.80
2018-04-17T15:43:57.164Z,41.70
2018-04-17T15:46:25.529Z,41.40
2018-04-17T15:48:54.357Z,41.40
2018-04-17T15:51:22.555Z,41.20
2018-04-17T15:53:50.979Z,40.50
2018-04-17T15:56:19.239Z,39.80
2018-04-17T15:58:47.483Z,39.10
2018-04-17T16:01:15.756Z,38.70
2018-04-17T16:03:44.607Z,38.60
2018-04-17T16:06:12.923Z,38.30
2018-04-17T16:08:41.269Z,37.90
2018-04-17T16:11:09.552Z,37.50
2018-04-17T16:13:38.011Z,37.20
2018-04-17T16:16:06.395Z,37.40
2018-04-17T16:18:34.788Z,37.50
2018-04-17T16:21:03.027Z,37.60
2018-04-17T16:23:31.870Z,37.90
2018-04-17T16:26:00.974Z,38.60
2018-04-17T16:28:30.000Z,38.40
2018-04-17T16:30:58.239Z,38.40
2018-04-17T16:33:27.259Z,37.60
2018-04-17T16:35:55.515Z,37.60
2018-04-17T16:38:23.746Z,37.60
2018-04-17T16:40:52.009Z,37.90
2018-04-17T16:43:20.608Z,38.10
2018-04-17T16:45:48.988Z,38.20
2018-04-17T16:48:17.515Z,37.90
2018-04-17T16:50:46.523Z,36.70
2018-04-17T16:53:15.774Z,36.70
2018-04-17T16:55:44.177Z,36.60
2018-04-17T16:58:13.635Z,36.30
2018-04-17T17:00:41.860Z,36.30
2018-04-17T17:03:11.455Z,35.70
2018-04-17T17:05:39.692Z,35.60
2018-04-17T17:08:08.086Z,34.80
2018-04-17T17:10:36.406Z,34.40
2018-04-17T17:13:04.649Z,34.40
2018-04-17T17:15:32.887Z,34.40
2018-04-17T17:18:01.151Z,33.90
2018-04-17T17:20:29.551Z,33.20
2018-04-17T17:22:58.200Z,32.50
2018-04-17T17:25:29.335Z,31.40
2018-04-17T17:27:57.563Z,31.40
2018-04-17T17:30:25.806Z,30.90
2018-04-17T17:32:54.439Z,30.50
2018-04-17T17:35:22.903Z,30.20
2018-04-17T17:37:51.135Z,29.90
2018-04-17T17:40:19.472Z,29.80
2018-04-17T17:42:47.693Z,29.60
2018-04-17T17:45:16.731Z,29.00
2018-04-17T17:47:45.008Z,29.00
2018-04-17T17:50:13.681Z,28.80
2018-04-17T17:52:41.922Z,28.60
2018-04-17T17:55:10.362Z,28.40
2018-04-17T17:57:39.771Z,28.30
2018-04-17T18:00:08.004Z,28.20
2018-04-17T18:02:36.283Z,28.00
2018-04-17T18:05:04.567Z,27.90
2018-04-17T18:07:33.055Z,27.80
2018-04-17T18:10:02.323Z,27.60
2018-04-17T18:12:31.333Z,27.00
2018-04-17T18:14:59.782Z,26.90
2018-04-17T18:17:28.099Z,26.60
2018-04-17T18:20:00.466Z,26.50
2018-04-17T18:22:32.804Z,26.40
2018-04-17T18:25:03.016Z,26.10
2018-04-17T18:27:31.280Z,26.10
2018-04-17T18:29:59.528Z,26.00
2018-04-17T18:32:27.762Z,25.90
2018-04-17T18:34:56.204Z,25.80
2018-04-17T18:37:24.975Z,25.70
2018-04-17T18:39:53.207Z,25.60
2018-04-17T18:42:21.447Z,25.50
2018-04-17T18:44:49.795Z,25.40
2018-04-17T18:47:18.407Z,25.20
2018-04-17T18:49:47.707Z,25.10
2018-04-17T18:52:16.107Z,25.00
2018-04-17T18:54:44.356Z,24.90
2018-04-17T18:57:13.039Z,24.90
2018-04-17T18:59:42.847Z,24.80
2018-04-17T19:02:12.091Z,24.70
2018-04-17T19:04:41.071Z,24.70
2018-04-17T19:07:09.333Z,24.60
2018-04-17T19:09:37.576Z,24.50
2018-04-17T19:12:05.819Z,24.50
2018-04-17T19:14:34.291Z,24.40
2018-04-17T19:17:02.549Z,24.30
2018-04-17T19:19:32.219Z,24.20
2018-04-17T19:22:00.708Z,24.10
2018-04-17T19:24:29.198Z,24.00
2018-04-17T19:26:57.423Z,24.00
2018-04-17T19:29:26.451Z,23.80
2018-04-17T19:31:54.697Z,23.80
2018-04-17T19:34:23.143Z,23.70
2018-04-17T19:36:51.886Z,23.60
2018-04-17T19:39:20.291Z,23.60
2018-04-17T19:41:48.524Z,23.50
2018-04-17T19:44:16.853Z,23.40
2018-04-17T19:46:45.095Z,23.30
2018-04-17T19:49:13.347Z,23.20
2018-04-17T19:51:41.611Z,23.10
2018-04-17T19:54:10.792Z,23.00
2018-04-17T19:56:39.052Z,23.00
2018-04-17T19:59:08.506Z,22.90
2018-04-17T20:01:37.839Z,22.80
2018-04-17T20:04:06.152Z,22.70
2018-04-17T20:06:35.244Z,22.70
2018-04-17T20:09:03.487Z,22.50
2018-04-17T20:11:31.901Z,22.40
2018-04-17T20:14:00.155Z,22.30
2018-04-17T20:16:28.432Z,22.20
2018-04-17T20:18:56.671Z,22.10
2018-04-17T20:21:24.937Z,22.10
2018-04-17T20:23:53.186Z,22.00
2018-04-17T20:26:21.661Z,21.90
2018-04-17T20:28:50.072Z,21.80
2018-04-17T20:31:18.313Z,21.70
2018-04-17T20:33:46.559Z,21.60
2018-04-17T20:36:14.976Z,21.50
2018-04-17T20:38:43.232Z,21.40
2018-04-17T20:41:11.471Z,21.30
2018-04-17T20:43:39.739Z,21.20
2018-04-17T20:46:07.992Z,21.20
2018-04-17T20:48:36.238Z,21.20
2018-04-17T20:51:06.050Z,21.20
2018-04-17T20:53:34.291Z,21.10
2018-04-17T20:56:02.544Z,20.90
2018-04-17T20:58:30.812Z,20.80
2018-04-17T21:00:59.177Z,20.80
2018-04-17T21:03:27.414Z,20.80
2018-04-17T21:05:55.707Z,20.70
2018-04-17T21:08:24.040Z,20.60
2018-04-17T21:10:53.042Z,20.60
2018-04-17T21:13:22.530Z,20.50
2018-04-17T21:15:50.763Z,20.50
2018-04-17T21:18:18.999Z,20.50
2018-04-17T21:20:47.267Z,20.40
2018-04-17T21:23:15.509Z,20.40
2018-04-17T21:25:43.807Z,20.30
2018-04-17T21:28:13.580Z,20.20
2018-04-17T21:30:41.826Z,20.20
2018-04-17T21:33:10.071Z,20.10
2018-04-17T21:35:38.746Z,20.10
2018-04-17T21:38:06.991Z,20.10
2018-04-17T21:40:35.232Z,20.00
2018-04-17T21:43:03.499Z,19.90
2018-04-17T21:45:32.506Z,19.80
2018-04-17T21:48:01.524Z,19.70
2018-04-17T21:50:29.782Z,19.70
2018-04-17T21:52:58.212Z,19.60
2018-04-17T21:55:26.456Z,19.50
2018-04-17T21:57:55.047Z,19.50
2018-04-17T22:00:24.271Z,19.40
2018-04-17T22:02:52.807Z,19.30
2018-04-17T22:05:21.075Z,19.20
2018-04-17T22:07:50.090Z,19.10
2018-04-17T22:10:18.711Z,19.10
2018-04-17T22:12:46.975Z,19.10
2018-04-17T22:15:15.218Z,19.00
2018-04-17T22:17:44.220Z,18.80
2018-04-17T22:20:12.888Z,18.80
2018-04-17T22:22:41.901Z,18.70
2018-04-17T22:25:10.143Z,18.70
2018-04-17T22:27:38.410Z,18.80
2018-04-17T22:30:06.695Z,18.70
2018-04-17T22:32:35.695Z,18.50
2018-04-17T22:35:04.839Z,18.50
2018-04-17T22:37:33.063Z,18.50
2018-04-17T22:40:02.068Z,18.40
2018-04-17T22:42:31.529Z,18.30
2018-04-17T22:44:59.751Z,18.30
2018-04-17T22:47:28.759Z,18.20
2018-04-17T22:49:57.467Z,18.20
2018-04-17T22:52:25.803Z,18.20
2018-04-17T22:54:54.806Z,18.00
2018-04-17T22:57:23.834Z,17.90
2018-04-17T22:59:52.131Z,17.90
2018-04-17T23:02:20.374Z,17.90
2018-04-17T23:04:48.699Z,17.90
2018-04-17T23:07:17.708Z,17.80
2018-04-17T23:09:46.950Z,17.70
2018-04-17T23:12:15.620Z,17.70
2018-04-17T23:14:43.951Z,17.60
2018-04-17T23:17:12.195Z,17.60
2018-04-17T23:19:40.596Z,17.50
2018-04-17T23:22:08.819Z,17.60
2018-04-17T23:24:37.838Z,17.50
2018-04-17T23:27:06.228Z,17.50
2018-04-17T23:29:34.564Z,17.40
2018-04-17T23:32:03.587Z,17.30
2018-04-17T23:34:31.944Z,17.30
2018-04-17T23:37:00.962Z,17.20
2018-04-17T23:39:29.200Z,17.20
2018-04-17T23:41:57.468Z,17.10
2018-04-17T23:44:25.722Z,17.10
2018-04-17T23:46:54.001Z,17.00
2018-04-17T23:49:22.567Z,17.00
2018-04-17T23:51:50.820Z,17.00
2018-04-17T23:54:19.075Z,16.90
2018-04-17T23:56:47.344Z,16.90
2018-04-17T23:59:16.348Z,16.90
